Time;durP1;ratioP1;P1;durP2;ratioP2;P2;SDS_P1;SDS_P2;PMS_P1;PMS_P2;Temp;Humidity;BMP_temperature;BMP_pressure;BME280_temperature;BME280_humidity;BME280_pressure;Samples;Min_cycle;Max_cycle;Signal;HPM_P1;HPM_P2
2023/12/15 00:00:58;;;;;;;11.48;4.95;;;10.90;99.90;;;;;;5053871;28;20108;-62
2023/12/15 00:03:24;;;;;;;9.73;4.85;;;10.90;99.90;;;;;;5053520;28;20403;-62
2023/12/15 00:05:50;;;;;;;7.57;4.50;;;10.90;99.90;;;;;;5053802;28;20029;-62
2023/12/15 00:08:15;;;;;;;7.85;4.65;;;10.90;99.90;;;;;;5054109;28;20059;-62
2023/12/15 00:10:41;;;;;;;8.93;4.78;;;11.00;99.90;;;;;;5053734;28;20438;-63
2023/12/15 00:13:07;;;;;;;9.02;5.25;;;10.90;99.90;;;;;;5053541;28;20519;-63
2023/12/15 00:15:32;;;;;;;6.55;3.85;;;11.00;99.90;;;;;;5053364;28;20060;-61
2023/12/15 00:17:59;;;;;;;5.78;3.95;;;11.00;99.90;;;;;;5053471;28;20094;-63
2023/12/15 00:20:24;;;;;;;6.47;3.97;;;11.00;99.90;;;;;;5053586;28;20102;-63
2023/12/15 00:22:50;;;;;;;5.15;3.65;;;11.00;99.90;;;;;;5053463;28;20075;-63
2023/12/15 00:25:16;;;;;;;6.82;3.80;;;11.00;99.90;;;;;;5053444;28;20033;-63
2023/12/15 00:27:41;;;;;;;6.10;3.47;;;11.00;99.90;;;;;;5053833;28;20410;-63
2023/12/15 00:30:07;;;;;;;8.55;4.18;;;11.00;99.90;;;;;;5053192;28;20051;-63
2023/12/15 00:32:33;;;;;;;4.70;3.50;;;11.10;99.90;;;;;;5052902;28;20495;-63
2023/12/15 00:34:59;;;;;;;6.28;3.10;;;11.40;99.90;;;;;;5053272;28;20033;-62
2023/12/15 00:37:24;;;;;;;5.25;2.97;;;11.60;99.90;;;;;;5053184;28;20025;-62
2023/12/15 00:39:50;;;;;;;5.00;2.78;;;11.70;99.90;;;;;;5052984;28;20028;-63
2023/12/15 00:42:16;;;;;;;3.97;2.80;;;11.70;99.90;;;;;;5053213;28;20084;-63
2023/12/15 00:44:41;;;;;;;3.70;2.65;;;11.70;99.90;;;;;;5053490;28;20080;-63
2023/12/15 00:47:07;;;;;;;4.72;2.70;;;11.80;99.90;;;;;;5052844;28;20014;-63
2023/12/15 00:49:32;;;;;;;4.78;2.70;;;12.00;99.90;;;;;;5052936;28;20028;-63
2023/12/15 00:51:58;;;;;;;3.80;2.63;;;12.00;99.90;;;;;;5052899;28;20061;-63
2023/12/15 00:54:24;;;;;;;2.85;2.30;;;12.00;99.90;;;;;;5053043;28;20067;-63
2023/12/15 00:56:50;;;;;;;3.65;2.65;;;12.10;99.90;;;;;;5053192;28;20083;-63
2023/12/15 00:59:16;;;;;;;3.65;2.30;;;12.10;99.90;;;;;;5052491;28;20041;-63
2023/12/15 01:01:41;;;;;;;6.15;2.63;;;12.10;99.90;;;;;;5052166;28;20029;-63
2023/12/15 01:04:07;;;;;;;4.75;2.60;;;11.90;99.90;;;;;;5052953;28;20027;-63
2023/12/15 01:06:33;;;;;;;3.83;2.90;;;11.80;99.90;;;;;;5052691;28;20107;-63
2023/12/15 01:08:58;;;;;;;3.67;2.92;;;11.80;99.90;;;;;;5052594;28;20032;-62
2023/12/15 01:11:24;;;;;;;3.92;2.78;;;11.70;99.90;;;;;;5052318;28;20063;-63
2023/12/15 01:13:49;;;;;;;4.07;2.97;;;11.70;99.90;;;;;;5052608;28;20107;-62
2023/12/15 01:16:15;;;;;;;5.13;3.05;;;11.60;99.90;;;;;;5052180;28;20028;-62
2023/12/15 01:18:41;;;;;;;4.43;3.05;;;11.50;99.90;;;;;;5052389;28;20025;-62
2023/12/15 01:21:07;;;;;;;4.18;3.00;;;11.50;99.90;;;;;;5052665;28;20046;-63
2023/12/15 01:23:35;;;;;;;5.82;3.30;;;11.40;99.90;;;;;;5052321;28;20021;-63
2023/12/15 01:26:01;;;;;;;4.80;3.58;;;11.40;99.90;;;;;;5052234;28;20033;-63
2023/12/15 01:28:27;;;;;;;5.63;3.75;;;11.40;99.90;;;;;;5051714;28;20025;-62
2023/12/15 01:30:53;;;;;;;4.25;3.10;;;11.40;99.90;;;;;;5051893;28;20041;-63
2023/12/15 01:33:18;;;;;;;5.82;3.22;;;11.30;99.90;;;;;;5052041;28;20465;-63
2023/12/15 01:35:44;;;;;;;4.18;3.05;;;11.30;99.90;;;;;;5052131;28;20453;-63
2023/12/15 01:38:10;;;;;;;5.30;3.30;;;11.30;99.90;;;;;;5052236;28;20033;-62
2023/12/15 01:40:36;;;;;;;6.43;3.17;;;11.30;99.90;;;;;;5051816;28;20025;-62
2023/12/15 01:43:01;;;;;;;4.90;3.20;;;11.30;99.90;;;;;;5051814;28;20114;-62
2023/12/15 01:45:27;;;;;;;5.18;3.60;;;11.30;99.90;;;;;;5051925;28;20029;-62
2023/12/15 01:47:54;;;;;;;6.07;3.83;;;11.30;99.90;;;;;;5051798;28;20021;-62
2023/12/15 01:50:20;;;;;;;5.22;4.00;;;11.20;99.90;;;;;;5050624;28;20434;-62
2023/12/15 01:52:45;;;;;;;7.40;4.28;;;11.30;99.90;;;;;;5051745;28;20028;-62
2023/12/15 01:55:11;;;;;;;5.53;4.13;;;11.20;99.90;;;;;;5051959;28;20124;-62
2023/12/15 01:57:37;;;;;;;5.00;3.72;;;11.20;99.90;;;;;;5051676;28;20396;-62
2023/12/15 02:00:06;;;;;;;5.70;4.43;;;11.20;99.90;;;;;;5051131;28;20060;-62
2023/12/15 02:02:35;;;;;;;4.68;3.97;;;11.20;99.90;;;;;;5052041;28;20041;-62
2023/12/15 02:05:02;;;;;;;6.80;4.20;;;11.10;99.90;;;;;;5051650;28;20021;-62
2023/12/15 02:07:28;;;;;;;7.72;4.57;;;11.10;99.90;;;;;;5051719;28;20025;-62
2023/12/15 02:09:55;;;;;;;4.63;4.13;;;11.10;99.90;;;;;;5051513;28;20052;-63
2023/12/15 02:12:21;;;;;;;7.10;4.40;;;11.10;99.90;;;;;;5051491;28;20108;-62
2023/12/15 02:14:47;;;;;;;5.20;4.10;;;11.00;99.90;;;;;;5051049;28;20139;-62
2023/12/15 02:17:13;;;;;;;7.18;4.75;;;11.00;99.90;;;;;;5051542;28;20052;-62
2023/12/15 02:19:38;;;;;;;5.80;4.63;;;10.90;99.90;;;;;;5051545;28;20033;-62
2023/12/15 02:22:04;;;;;;;5.60;4.28;;;10.90;99.90;;;;;;5051343;28;20025;-62
2023/12/15 02:24:30;;;;;;;6.90;4.22;;;11.00;99.90;;;;;;5051269;28;20044;-62
2023/12/15 02:26:56;;;;;;;6.57;4.20;;;11.10;99.90;;;;;;5051160;28;20021;-61
2023/12/15 02:29:23;;;;;;;5.78;3.75;;;11.30;99.90;;;;;;5051507;28;20024;-61
2023/12/15 02:31:48;;;;;;;5.95;4.00;;;11.30;99.90;;;;;;5051221;28;20487;-62
2023/12/15 02:34:14;;;;;;;4.35;3.40;;;11.30;99.90;;;;;;5051409;28;20073;-62
2023/12/15 02:36:40;;;;;;;7.20;3.85;;;11.30;99.90;;;;;;5051217;28;20040;-62
2023/12/15 02:39:06;;;;;;;4.63;3.60;;;11.30;99.90;;;;;;5050892;28;20125;-62
2023/12/15 02:41:32;;;;;;;5.68;3.55;;;11.30;99.90;;;;;;5050742;28;20471;-62
2023/12/15 02:43:58;;;;;;;6.45;3.92;;;11.30;99.90;;;;;;5051050;28;20048;-62
2023/12/15 02:46:24;;;;;;;5.25;3.85;;;11.30;99.90;;;;;;5051083;28;20021;-62
2023/12/15 02:48:50;;;;;;;4.80;3.50;;;11.20;99.90;;;;;;5050994;28;20082;-62
2023/12/15 02:51:29;;;;;;;4.88;3.70;;;11.20;99.90;;;;;;5050989;28;20414;-62
2023/12/15 02:53:59;;;;;;;6.20;3.78;;;11.10;99.90;;;;;;5050713;28;20119;-62
2023/12/15 02:56:25;;;;;;;6.25;3.67;;;11.00;99.90;;;;;;5051204;28;20051;-62
2023/12/15 02:58:51;;;;;;;7.00;3.70;;;11.00;99.90;;;;;;5050588;28;20590;-62
2023/12/15 03:01:17;;;;;;;7.60;4.35;;;11.00;99.90;;;;;;5050896;28;20109;-62
2023/12/15 03:03:42;;;;;;;5.90;4.40;;;10.90;99.90;;;;;;5051192;28;20032;-62
2023/12/15 03:06:08;;;;;;;8.05;4.28;;;10.80;99.90;;;;;;5050872;28;20029;-62
2023/12/15 03:08:34;;;;;;;8.80;4.60;;;10.80;99.90;;;;;;5050669;28;20029;-62
2023/12/15 03:11:00;;;;;;;8.00;4.63;;;10.80;99.90;;;;;;5050632;28;20029;-62
2023/12/15 03:13:26;;;;;;;5.95;4.10;;;10.80;99.90;;;;;;5051154;28;20033;-62
2023/12/15 03:15:52;;;;;;;7.18;4.18;;;10.70;99.90;;;;;;5050607;28;20519;-63
2023/12/15 03:18:17;;;;;;;10.35;4.53;;;10.70;99.90;;;;;;5050761;28;20051;-62
2023/12/15 03:20:46;;;;;;;7.57;4.20;;;10.80;99.90;;;;;;5050994;28;20033;-62
2023/12/15 03:23:12;;;;;;;11.07;4.20;;;10.80;99.90;;;;;;5050715;28;20025;-62
2023/12/15 03:25:37;;;;;;;12.43;4.35;;;10.90;99.90;;;;;;5050340;28;20025;-62
2023/12/15 03:28:03;;;;;;;14.35;4.40;;;11.00;99.90;;;;;;5050518;28;20032;-62
2023/12/15 03:30:29;;;;;;;14.73;4.15;;;11.00;99.90;;;;;;5050773;28;20036;-62
2023/12/15 03:32:54;;;;;;;20.85;4.57;;;11.10;99.90;;;;;;5050796;28;20032;-62
2023/12/15 03:35:20;;;;;;;20.05;4.20;;;11.20;99.90;;;;;;5050566;28;20033;-62
2023/12/15 03:37:46;;;;;;;15.18;3.92;;;11.20;99.90;;;;;;5050563;28;20103;-62
2023/12/15 03:40:12;;;;;;;17.73;4.32;;;11.20;99.90;;;;;;5050031;28;20033;-62
2023/12/15 03:42:38;;;;;;;17.38;4.55;;;11.10;99.90;;;;;;5050898;28;20460;-62
2023/12/15 03:45:04;;;;;;;21.05;4.50;;;11.10;99.90;;;;;;5050507;28;20107;-61
2023/12/15 03:47:31;;;;;;;18.23;4.43;;;11.00;99.90;;;;;;5050449;28;20040;-63
2023/12/15 03:49:57;;;;;;;15.82;4.22;;;10.90;99.90;;;;;;5050499;28;20555;-61
2023/12/15 03:52:22;;;;;;;17.42;4.72;;;10.80;99.90;;;;;;5052974;28;20132;-62
2023/12/15 03:54:49;;;;;;;13.68;4.00;;;10.70;99.90;;;;;;5053531;28;20111;-62
2023/12/15 03:57:14;;;;;;;11.48;3.28;;;10.60;99.90;;;;;;5054320;28;20033;-62
2023/12/15 03:59:40;;;;;;;14.05;3.90;;;10.50;99.90;;;;;;5053674;28;20555;-62
2023/12/15 04:02:06;;;;;;;11.73;3.30;;;10.40;99.90;;;;;;5053965;28;20035;-61
2023/12/15 04:04:34;;;;;;;12.30;3.53;;;10.40;99.90;;;;;;5054211;28;20025;-62
2023/12/15 04:07:00;;;;;;;12.50;3.50;;;10.30;99.90;;;;;;5053806;28;20025;-62
2023/12/15 04:09:26;;;;;;;10.02;3.05;;;10.30;99.90;;;;;;5053430;28;20445;-62
2023/12/15 04:11:52;;;;;;;10.70;3.25;;;10.30;99.90;;;;;;5053709;28;20111;-63
2023/12/15 04:14:18;;;;;;;7.35;2.63;;;10.30;99.90;;;;;;5053696;28;20041;-62
2023/12/15 04:16:43;;;;;;;10.48;3.50;;;10.40;99.90;;;;;;5053887;28;20487;-62
2023/12/15 04:19:09;;;;;;;9.52;3.40;;;10.50;99.90;;;;;;5053690;28;20021;-62
2023/12/15 04:21:35;;;;;;;13.00;3.85;;;10.60;99.90;;;;;;5053473;28;20040;-62
2023/12/15 04:24:00;;;;;;;9.55;3.50;;;10.80;99.90;;;;;;5053096;28;20086;-62
2023/12/15 04:26:26;;;;;;;13.82;4.32;;;10.80;99.90;;;;;;5053567;28;20620;-62
2023/12/15 04:28:53;;;;;;;12.85;3.28;;;10.80;99.90;;;;;;5053624;28;20040;-62
2023/12/15 04:31:19;;;;;;;9.93;2.95;;;10.80;99.90;;;;;;5053519;28;20035;-62
2023/12/15 04:33:44;;;;;;;9.15;3.00;;;10.80;99.90;;;;;;5053294;28;20037;-63
2023/12/15 04:36:13;;;;;;;11.57;3.33;;;10.70;99.90;;;;;;5053226;28;20033;-61
2023/12/15 04:38:39;;;;;;;13.20;3.47;;;11.00;99.90;;;;;;5052813;28;20445;-62
2023/12/15 04:41:05;;;;;;;12.48;3.60;;;11.20;99.90;;;;;;5053484;28;20021;-61
2023/12/15 04:43:31;;;;;;;14.68;3.75;;;11.40;99.90;;;;;;5053378;28;20028;-62
2023/12/15 04:45:56;;;;;;;14.60;3.92;;;11.40;99.90;;;;;;5053202;28;20036;-62
2023/12/15 04:48:22;;;;;;;15.65;3.70;;;11.40;99.90;;;;;;5051736;28;20032;-62
2023/12/15 04:50:49;;;;;;;13.32;3.40;;;11.40;99.90;;;;;;5052907;28;20075;-62
2023/12/15 04:53:15;;;;;;;15.82;3.92;;;11.40;99.90;;;;;;5052637;28;20037;-62
2023/12/15 04:55:40;;;;;;;14.73;3.90;;;11.30;99.90;;;;;;5053172;28;20110;-62
2023/12/15 04:58:07;;;;;;;13.98;3.80;;;11.30;99.90;;;;;;5052833;28;20442;-62
2023/12/15 05:00:32;;;;;;;19.98;4.18;;;11.30;99.90;;;;;;5052753;28;20056;-63
2023/12/15 05:02:59;;;;;;;14.57;3.80;;;11.30;99.90;;;;;;5051668;28;20029;-63
2023/12/15 05:05:25;;;;;;;20.42;4.68;;;11.20;99.90;;;;;;5053055;28;20495;-62
2023/12/15 05:07:51;;;;;;;19.00;4.13;;;11.20;99.90;;;;;;5052227;28;20032;-62
2023/12/15 05:10:16;;;;;;;16.30;4.07;;;11.20;99.90;;;;;;5052758;28;20040;-62
2023/12/15 05:12:42;;;;;;;15.20;3.90;;;11.20;99.90;;;;;;5052622;28;20031;-62
2023/12/15 05:15:08;;;;;;;15.98;4.35;;;11.20;99.90;;;;;;5052443;28;20106;-62
2023/12/15 05:17:34;;;;;;;15.32;4.00;;;11.10;99.90;;;;;;5052743;28;20017;-62
2023/12/15 05:20:02;;;;;;;16.52;4.28;;;11.10;99.90;;;;;;5051060;28;20521;-62
2023/12/15 05:22:28;;;;;;;14.57;3.97;;;11.10;99.90;;;;;;5052057;28;20708;-62
2023/12/15 05:24:54;;;;;;;16.00;4.40;;;11.10;99.90;;;;;;5052390;28;20112;-62
2023/12/15 05:27:19;;;;;;;13.73;4.25;;;11.10;99.90;;;;;;5051432;28;20107;-62
2023/12/15 05:29:46;;;;;;;16.60;3.97;;;11.00;99.90;;;;;;5052203;28;20022;-62
2023/12/15 05:32:12;;;;;;;11.40;3.70;;;11.00;99.90;;;;;;5052197;28;20570;-62
2023/12/15 05:34:38;;;;;;;15.30;3.83;;;10.90;99.90;;;;;;5051985;28;20503;-62
2023/12/15 05:37:04;;;;;;;14.30;3.83;;;10.80;99.90;;;;;;5084296;28;20480;-62
2023/12/15 05:39:30;;;;;;;12.30;3.75;;;10.80;99.90;;;;;;5051923;28;20598;-62
2023/12/15 05:41:56;;;;;;;9.35;3.55;;;10.80;99.90;;;;;;5052059;28;20112;-62
2023/12/15 05:44:22;;;;;;;11.65;3.70;;;10.80;99.90;;;;;;5052298;28;20029;-62
2023/12/15 05:46:49;;;;;;;13.68;3.70;;;10.70;99.90;;;;;;5051909;28;20094;-62
2023/12/15 05:49:15;;;;;;;9.25;3.40;;;10.70;99.90;;;;;;5051827;28;20092;-62
2023/12/15 05:51:47;;;;;;;9.48;3.25;;;10.70;99.90;;;;;;5051591;28;20120;-62
2023/12/15 05:54:12;;;;;;;10.40;3.35;;;10.70;99.90;;;;;;5051692;28;20574;-62
2023/12/15 05:56:39;;;;;;;10.43;3.70;;;10.60;99.90;;;;;;5050788;28;20112;-62
2023/12/15 05:59:04;;;;;;;5.63;2.90;;;10.60;99.90;;;;;;5051741;28;20040;-62
2023/12/15 06:01:30;;;;;;;6.93;3.10;;;10.60;99.90;;;;;;5051661;28;20033;-62
2023/12/15 06:03:56;;;;;;;9.13;3.65;;;10.60;99.90;;;;;;5051511;28;20051;-62
2023/12/15 06:06:21;;;;;;;6.63;3.25;;;10.80;99.90;;;;;;5050405;28;20028;-62
2023/12/15 06:08:47;;;;;;;7.28;3.33;;;11.00;99.90;;;;;;5051549;28;20033;-62
2023/12/15 06:11:13;;;;;;;4.82;3.33;;;11.20;99.90;;;;;;5051555;28;20117;-62
2023/12/15 06:13:39;;;;;;;6.97;3.33;;;11.30;99.90;;;;;;5051167;28;20471;-62
2023/12/15 06:16:05;;;;;;;9.50;3.50;;;11.30;99.90;;;;;;5050228;28;20029;-62
2023/12/15 06:18:31;;;;;;;6.47;3.40;;;11.40;99.90;;;;;;5051287;28;20483;-62
2023/12/15 06:20:57;;;;;;;5.05;3.17;;;11.40;99.90;;;;;;5051215;28;20021;-62
2023/12/15 06:23:22;;;;;;;6.35;3.22;;;11.40;99.90;;;;;;5051497;28;20029;-62
2023/12/15 06:25:48;;;;;;;9.60;3.67;;;11.40;99.90;;;;;;5051391;28;20037;-62
2023/12/15 06:28:13;;;;;;;8.10;3.88;;;11.50;99.90;;;;;;5051609;28;20036;-61
2023/12/15 06:30:39;;;;;;;9.68;4.20;;;11.50;99.90;;;;;;5051286;28;20054;-61
2023/12/15 06:33:06;;;;;;;7.47;3.90;;;11.50;99.90;;;;;;5051194;28;20522;-62
2023/12/15 06:35:32;;;;;;;9.13;4.03;;;11.30;99.90;;;;;;5051239;28;20036;-62
2023/12/15 06:37:58;;;;;;;9.13;4.15;;;11.20;99.90;;;;;;5051203;28;20426;-62
2023/12/15 06:40:23;;;;;;;6.25;3.67;;;11.10;99.90;;;;;;5051254;28;20510;-62
2023/12/15 06:42:49;;;;;;;7.82;4.10;;;11.00;99.90;;;;;;5051152;28;20075;-63
2023/12/15 06:45:14;;;;;;;9.18;4.22;;;11.00;99.90;;;;;;5051487;28;20428;-62
2023/12/15 06:47:40;;;;;;;6.82;4.00;;;11.00;99.90;;;;;;5051054;28;20028;-62
2023/12/15 06:50:06;;;;;;;8.45;4.22;;;10.90;99.90;;;;;;5050659;28;20480;-62
2023/12/15 06:52:36;;;;;;;8.13;4.20;;;10.80;99.90;;;;;;5051013;28;20017;-62
2023/12/15 06:55:03;;;;;;;5.97;4.22;;;10.80;99.90;;;;;;5050914;28;20064;-62
2023/12/15 06:57:29;;;;;;;9.52;4.78;;;10.80;99.90;;;;;;5051193;28;20458;-63
2023/12/15 06:59:55;;;;;;;7.80;4.57;;;10.80;99.90;;;;;;5050877;28;20044;-62
2023/12/15 07:02:20;;;;;;;7.75;4.72;;;10.80;99.90;;;;;;5050933;28;20051;-62
2023/12/15 07:04:46;;;;;;;8.52;4.72;;;10.70;99.90;;;;;;5050586;28;20021;-62
2023/12/15 07:07:12;;;;;;;8.60;4.75;;;10.70;99.90;;;;;;5050910;28;20040;-62
2023/12/15 07:09:37;;;;;;;7.57;4.65;;;10.70;99.90;;;;;;5050852;28;20025;-62
2023/12/15 07:12:03;;;;;;;8.02;4.60;;;10.70;99.90;;;;;;5049591;28;20407;-62
2023/12/15 07:14:29;;;;;;;6.25;4.63;;;10.60;99.90;;;;;;5050980;28;20086;-62
2023/12/15 07:16:55;;;;;;;8.30;4.78;;;10.70;99.90;;;;;;5050519;28;20029;-61
2023/12/15 07:19:21;;;;;;;6.93;4.60;;;10.60;99.90;;;;;;5050701;28;20024;-62
2023/12/15 07:21:47;;;;;;;6.47;4.47;;;10.70;99.90;;;;;;5050820;28;20025;-63
2023/12/15 07:24:12;;;;;;;7.20;4.80;;;10.70;99.90;;;;;;5050693;28;20025;-62
2023/12/15 07:26:38;;;;;;;7.80;4.90;;;10.70;99.90;;;;;;5052711;28;20033;-62
2023/12/15 07:29:07;;;;;;;7.95;4.78;;;10.60;99.90;;;;;;5054705;28;20400;-65
2023/12/15 07:31:34;;;;;;;7.43;4.93;;;10.60;99.90;;;;;;5054229;28;20029;-66
2023/12/15 07:33:59;;;;;;;8.95;4.95;;;10.70;99.90;;;;;;5054166;28;20033;-66
2023/12/15 07:36:25;;;;;;;6.45;4.47;;;10.70;99.90;;;;;;5054788;28;20029;-64
2023/12/15 07:38:50;;;;;;;9.63;5.80;;;10.70;99.90;;;;;;5054326;28;20082;-65
2023/12/15 07:41:16;;;;;;;10.00;5.50;;;10.70;99.90;;;;;;5054463;28;20063;-65
2023/12/15 07:43:42;;;;;;;9.25;5.57;;;10.60;99.90;;;;;;5054552;28;20098;-67
2023/12/15 07:46:17;;;;;;;10.43;5.50;;;10.60;99.90;;;;;;5053822;28;20087;-65
2023/12/15 07:48:43;;;;;;;10.23;5.28;;;10.70;99.90;;;;;;5054100;28;20021;-65
2023/12/15 07:51:17;;;;;;;7.57;5.43;;;10.60;99.90;;;;;;5054288;28;20402;-66
2023/12/15 07:53:42;;;;;;;;;;;10.70;99.90;;;;;;5054428;28;20037;-65
2023/12/15 07:56:08;;;;;;;8.40;5.32;;;10.90;99.90;;;;;;5054127;28;19908;-66
2023/12/15 07:58:34;;;;;;;10.40;5.40;;;11.10;99.90;;;;;;5053864;28;20092;-65
2023/12/15 08:01:00;;;;;;;7.22;4.80;;;11.30;99.90;;;;;;5053791;28;20033;-66
2023/12/15 08:03:25;;;;;;;6.65;4.88;;;11.30;99.90;;;;;;5053971;28;20066;-65
2023/12/15 08:05:51;;;;;;;7.28;5.25;;;11.30;99.90;;;;;;5053970;28;20079;-65
2023/12/15 08:08:17;;;;;;;6.93;4.65;;;11.40;99.90;;;;;;5054058;28;20025;-65
2023/12/15 08:10:42;;;;;;;7.05;4.57;;;11.50;99.90;;;;;;5053660;28;20027;-65
2023/12/15 08:13:12;;;;;;;6.63;4.63;;;11.40;99.90;;;;;;5053673;28;20231;-65
2023/12/15 08:15:38;;;;;;;5.80;4.35;;;11.50;99.90;;;;;;5053788;28;20029;-66
2023/12/15 08:18:04;;;;;;;6.93;5.18;;;11.50;99.90;;;;;;5053511;28;20067;-66
2023/12/15 08:20:30;;;;;;;7.00;4.63;;;11.60;99.90;;;;;;5053526;28;20222;-65
2023/12/15 08:22:55;;;;;;;7.60;4.88;;;11.60;99.90;;;;;;5053500;28;20067;-66
2023/12/15 08:25:21;;;;;;;5.82;4.00;;;11.50;99.90;;;;;;5053501;28;20376;-65
2023/12/15 08:27:47;;;;;;;4.40;4.00;;;11.30;99.90;;;;;;5053611;28;20142;-66
2023/12/15 08:30:12;;;;;;;6.20;4.28;;;11.10;99.90;;;;;;5052928;28;20028;-65
2023/12/15 08:32:38;;;;;;;7.57;5.10;;;11.10;99.90;;;;;;5053242;28;20037;-65
2023/12/15 08:35:04;;;;;;;6.07;5.13;;;10.90;99.90;;;;;;5053105;28;20068;-66
2023/12/15 08:37:30;;;;;;;7.30;5.28;;;10.80;99.90;;;;;;5053333;28;20102;-65
2023/12/15 08:39:55;;;;;;;6.95;5.00;;;10.80;99.90;;;;;;5053090;28;20639;-65
2023/12/15 08:42:21;;;;;;;6.97;5.03;;;10.80;99.90;;;;;;5052775;28;20099;-65
2023/12/15 08:44:47;;;;;;;6.68;4.82;;;10.80;99.90;;;;;;5053207;28;20103;-65
2023/12/15 08:47:12;;;;;;;7.50;5.22;;;10.80;99.90;;;;;;5053136;28;20075;-65
2023/12/15 08:49:38;;;;;;;8.35;5.20;;;10.70;99.90;;;;;;5053123;28;20027;-65
2023/12/15 08:52:04;;;;;;;5.97;4.90;;;10.70;99.90;;;;;;5053139;28;20028;-65
2023/12/15 08:54:30;;;;;;;6.43;4.70;;;10.70;99.90;;;;;;5052730;28;20491;-66
2023/12/15 08:56:56;;;;;;;5.43;4.30;;;10.80;99.90;;;;;;5053302;28;20015;-65
2023/12/15 08:59:21;;;;;;;5.15;4.22;;;10.80;99.90;;;;;;5052458;28;20418;-64
2023/12/15 09:01:47;;;;;;;6.68;4.13;;;10.80;99.90;;;;;;5052841;28;20532;-65
2023/12/15 09:04:13;;;;;;;6.95;3.97;;;10.80;99.90;;;;;;5053124;28;20094;-65
2023/12/15 09:06:39;;;;;;;4.50;3.80;;;10.80;99.90;;;;;;5052684;28;20391;-66
2023/12/15 09:09:04;;;;;;;4.53;3.55;;;10.80;99.90;;;;;;5052668;28;20116;-65
2023/12/15 09:11:30;;;;;;;5.97;4.05;;;10.80;99.90;;;;;;5052516;28;20085;-65
2023/12/15 09:13:56;;;;;;;6.43;4.15;;;10.90;99.90;;;;;;5052165;28;20032;-65
2023/12/15 09:16:21;;;;;;;5.53;4.20;;;10.90;99.90;;;;;;5052542;28;20448;-65
2023/12/15 09:18:47;;;;;;;5.07;3.70;;;10.90;99.90;;;;;;5052471;28;20036;-65
2023/12/15 09:21:12;;;;;;;4.60;4.07;;;10.90;99.90;;;;;;5052463;28;20036;-65
2023/12/15 09:23:38;;;;;;;5.95;4.13;;;10.90;99.90;;;;;;5052764;28;20479;-65
2023/12/15 09:26:04;;;;;;;4.38;3.47;;;10.90;99.90;;;;;;5052250;28;20491;-65
2023/12/15 09:28:30;;;;;;;5.40;3.50;;;10.90;99.90;;;;;;5051887;28;20399;-65
2023/12/15 09:30:55;;;;;;;4.95;4.18;;;11.00;99.90;;;;;;5052710;28;20025;-66
2023/12/15 09:33:21;;;;;;;5.32;4.20;;;11.00;99.90;;;;;;5052180;28;20476;-65
2023/12/15 09:35:47;;;;;;;4.32;3.55;;;11.00;99.90;;;;;;5052507;28;20487;-64
2023/12/15 09:38:13;;;;;;;5.50;3.88;;;11.00;99.90;;;;;;5051975;28;20143;-66
2023/12/15 09:40:39;;;;;;;5.90;4.18;;;11.00;99.90;;;;;;5052350;28;20100;-65
2023/12/15 09:43:05;;;;;;;5.60;4.00;;;11.00;99.90;;;;;;5051779;28;20096;-65
2023/12/15 09:45:31;;;;;;;4.88;3.60;;;11.10;99.90;;;;;;5051972;28;20624;-65
2023/12/15 09:48:01;;;;;;;5.05;3.33;;;11.20;99.90;;;;;;5051824;28;20545;-65
2023/12/15 09:50:32;;;;;;;5.60;3.47;;;11.50;99.90;;;;;;5051809;28;20055;-65
2023/12/15 09:52:58;;;;;;;4.72;3.58;;;11.70;99.90;;;;;;5052014;28;20025;-65
2023/12/15 09:55:26;;;;;;;4.60;3.70;;;11.70;99.90;;;;;;5051707;28;20040;-65
2023/12/15 09:57:52;;;;;;;4.03;2.97;;;11.90;99.90;;;;;;5051333;28;20087;-65
2023/12/15 10:00:18;;;;;;;3.88;3.42;;;11.90;99.90;;;;;;5051777;28;20055;-65
2023/12/15 10:02:44;;;;;;;13.52;12.18;;;12.00;99.90;;;;;;5051737;28;20101;-65
2023/12/15 10:05:10;;;;;;;9.13;8.23;;;12.00;99.90;;;;;;5051605;28;20029;-65
2023/12/15 10:07:37;;;;;;;5.53;4.88;;;12.10;99.90;;;;;;5051904;28;20021;-65
2023/12/15 10:10:02;;;;;;;6.28;3.72;;;12.10;99.90;;;;;;5051369;28;20487;-65
2023/12/15 10:12:31;;;;;;;5.50;3.53;;;12.30;99.90;;;;;;5051418;28;20086;-65
2023/12/15 10:14:57;;;;;;;5.05;2.90;;;12.30;99.90;;;;;;5051925;28;20021;-65
2023/12/15 10:17:22;;;;;;;5.30;3.10;;;12.20;99.90;;;;;;5051297;28;20036;-65
2023/12/15 10:19:48;;;;;;;4.25;2.80;;;12.10;99.90;;;;;;5051478;28;20036;-65
2023/12/15 10:22:14;;;;;;;5.25;3.20;;;12.00;99.90;;;;;;5051538;28;20036;-65
2023/12/15 10:24:40;;;;;;;8.30;3.30;;;12.00;99.90;;;;;;5051311;28;20035;-65
2023/12/15 10:27:08;;;;;;;7.22;4.13;;;11.90;99.90;;;;;;5051497;28;20025;-65
2023/12/15 10:29:37;;;;;;;5.65;3.90;;;11.80;99.90;;;;;;5051099;28;20036;-65
2023/12/15 10:32:04;;;;;;;4.30;3.63;;;11.80;99.90;;;;;;5051145;28;20064;-65
2023/12/15 10:34:30;;;;;;;5.57;4.20;;;11.80;99.90;;;;;;5051073;28;20041;-65
2023/12/15 10:36:55;;;;;;;6.03;3.88;;;11.80;99.90;;;;;;5051223;28;20048;-65
2023/12/15 10:39:24;;;;;;;5.35;3.60;;;11.80;99.90;;;;;;5051078;28;20399;-65
2023/12/15 10:41:51;;;;;;;4.53;3.75;;;11.70;99.90;;;;;;5050765;28;20029;-65
2023/12/15 10:44:20;;;;;;;6.28;4.18;;;11.70;99.90;;;;;;5051225;28;20033;-66
2023/12/15 10:46:47;;;;;;;5.93;4.25;;;11.80;99.90;;;;;;5051221;28;20072;-65
2023/12/15 10:49:13;;;;;;;5.30;3.90;;;11.80;99.90;;;;;;5050966;28;20116;-65
2023/12/15 10:51:42;;;;;;;7.00;3.95;;;11.80;99.90;;;;;;5051103;28;20514;-66
2023/12/15 10:54:09;;;;;;;6.88;3.88;;;11.70;99.90;;;;;;5050961;28;20036;-65
2023/12/15 10:56:39;;;;;;;5.15;3.88;;;11.70;99.90;;;;;;5050829;28;20033;-65
2023/12/15 10:59:06;;;;;;;5.32;3.90;;;11.80;99.90;;;;;;5050780;28;20087;-65
2023/12/15 11:01:34;;;;;;;7.75;4.28;;;11.80;99.90;;;;;;5052425;28;20032;-65
2023/12/15 11:04:00;;;;;;;8.07;4.20;;;11.80;99.90;;;;;;5055139;28;20040;-65
2023/12/15 11:06:32;;;;;;;4.60;4.00;;;11.90;99.90;;;;;;5055081;28;20025;-65
2023/12/15 11:09:07;;;;;;;5.05;3.80;;;12.00;99.90;;;;;;5055118;28;20033;-65
2023/12/15 11:11:33;;;;;;;7.88;4.25;;;12.00;99.90;;;;;;5054820;28;20115;-65
2023/12/15 11:14:01;;;;;;;4.85;4.05;;;12.00;99.90;;;;;;5054722;28;20120;-65
2023/12/15 11:16:32;;;;;;;6.28;3.58;;;12.10;99.90;;;;;;5055076;28;20036;-66
2023/12/15 11:18:59;;;;;;;5.07;3.42;;;12.10;99.90;;;;;;5054463;28;20052;-65
2023/12/15 11:21:25;;;;;;;4.20;2.90;;;12.10;99.90;;;;;;5054247;28;20075;-67
2023/12/15 11:24:03;;;;;;;4.22;2.92;;;12.10;99.90;;;;;;5053880;28;20491;-64
2023/12/15 11:26:37;;;;;;;5.05;2.88;;;12.20;99.90;;;;;;5054693;28;20033;-66
2023/12/15 11:29:08;;;;;;;8.52;3.10;;;12.20;99.90;;;;;;5054700;28;20021;-64
2023/12/15 11:31:34;;;;;;;3.75;2.47;;;12.20;99.90;;;;;;5054837;28;20134;-66
2023/12/15 11:34:01;;;;;;;3.75;2.60;;;12.20;99.90;;;;;;5053334;28;20033;-66
2023/12/15 11:36:28;;;;;;;4.25;2.60;;;12.20;99.90;;;;;;5054271;28;20025;-67
2023/12/15 11:38:54;;;;;;;4.30;2.50;;;12.40;99.90;;;;;;5053815;28;20025;-66
2023/12/15 11:41:22;;;;;;;3.78;2.40;;;12.60;99.90;;;;;;5054224;28;20521;-66
2023/12/15 11:43:49;;;;;;;4.80;2.30;;;12.70;99.90;;;;;;5054206;28;20060;-66
2023/12/15 11:46:15;;;;;;;3.60;2.30;;;12.80;99.90;;;;;;5053981;28;20036;-67
2023/12/15 11:48:41;;;;;;;4.68;2.65;;;12.90;99.90;;;;;;5053688;28;20045;-66
2023/12/15 11:51:08;;;;;;;3.28;1.92;;;13.00;99.90;;;;;;5054230;28;20033;-66
2023/12/15 11:53:38;;;;;;;3.35;2.10;;;13.00;99.90;;;;;;5053506;28;20033;-67
2023/12/15 11:56:05;;;;;;;5.25;2.22;;;13.10;99.90;;;;;;5053885;28;20094;-66
2023/12/15 11:58:30;;;;;;;3.65;1.85;;;13.10;99.90;;;;;;5053772;28;20078;-66
2023/12/15 12:00:57;;;;;;;3.65;1.88;;;13.00;99.90;;;;;;5053525;28;20033;-66
2023/12/15 12:03:23;;;;;;;4.03;1.80;;;13.00;99.90;;;;;;5053630;28;20021;-67
2023/12/15 12:05:53;;;;;;;2.28;1.60;;;13.10;99.90;;;;;;5053676;28;20104;-67
2023/12/15 12:08:19;;;;;;;3.78;2.03;;;13.00;99.90;;;;;;5053481;28;20032;-66
2023/12/15 12:10:45;;;;;;;4.68;2.00;;;12.90;99.90;;;;;;5053539;28;20031;-66
2023/12/15 12:13:12;;;;;;;3.75;2.00;;;12.90;99.90;;;;;;5053339;28;20029;-67
2023/12/15 12:15:54;;;;;;;5.05;2.00;;;12.80;99.90;;;;;;5053279;28;20045;-67
2023/12/15 12:18:24;;;;;;;5.05;1.90;;;12.70;99.90;;;;;;5053546;28;20047;-66
2023/12/15 12:20:58;;;;;;;4.78;2.10;;;12.70;99.90;;;;;;5053346;28;20032;-67
2023/12/15 12:23:27;;;;;;;3.60;2.08;;;12.60;99.90;;;;;;5053502;28;20179;-67
2023/12/15 12:25:57;;;;;;;3.95;2.28;;;12.60;99.90;;;;;;5053055;28;20036;-66
2023/12/15 12:28:27;;;;;;;4.32;2.10;;;12.60;99.90;;;;;;5053324;28;20503;-66
2023/12/15 12:30:53;;;;;;;3.22;1.90;;;12.60;99.90;;;;;;5053336;28;20021;-67
2023/12/15 12:33:24;;;;;;;4.15;1.98;;;12.60;99.90;;;;;;5053153;28;20033;-67
2023/12/15 12:35:50;;;;;;;4.43;1.90;;;12.60;99.90;;;;;;5053491;28;20503;-67
2023/12/15 12:38:15;;;;;;;3.75;2.08;;;12.60;99.90;;;;;;5052819;28;20052;-66
2023/12/15 12:40:42;;;;;;;3.08;2.42;;;12.60;99.90;;;;;;5053099;28;20025;-66